Terminal Aerodrome Forecast
Issued by NWS Riverton, WY

Home | Current Version | Previous Version | Text Only | Print | Product List | Glossary On
Versions: 1 2 3 4 5 6 7 8 9 10 11 12 13 14
000
FTUS45 KRIW 212300
TAFRIW
TAF
KRIW 212327Z 2200/2224 16007KT P6SM SCT090 BKN200
     FM220300 12007KT P6SM VCSH BKN080
     FM220700 15006KT P6SM -SHRA FEW040 BKN060
     FM221100 18005KT P6SM VCSH FEW050 BKN100
     FM221300 VRB03KT P6SM FEW100 SCT200
     FM222100 VRB10G20KT P6SM VCTS FEW070CB OVC100=

USA.gov is the U.S. government's official web portal to all federal, state and local government web resources and services.